Time;durP1;ratioP1;P1;durP2;ratioP2;P2;SDS_P1;SDS_P2;PMS_P1;PMS_P2;Temp;Humidity;BMP_temperature;BMP_pressure;BME280_temperature;BME280_humidity;BME280_pressure;Samples;Min_cycle;Max_cycle;Signal;HPM_P1;HPM_P2
2024/03/12 00:01:29;;;;;;;6.13;4.47;;;10.50;99.90;;;;;;6153616;23;20501;-64
2024/03/12 00:03:56;;;;;;;7.63;4.73;;;10.40;99.90;;;;;;6153843;23;20729;-64
2024/03/12 00:06:23;;;;;;;7.57;5.63;;;10.40;99.90;;;;;;6154172;23;20402;-64
2024/03/12 00:08:50;;;;;;;7.13;5.40;;;10.40;99.90;;;;;;6154060;23;20476;-64
2024/03/12 00:11:17;;;;;;;6.67;4.40;;;10.40;99.90;;;;;;6154046;23;20900;-65
2024/03/12 00:13:45;;;;;;;7.33;4.97;;;10.40;99.90;;;;;;6153793;23;20418;-64
2024/03/12 00:16:12;;;;;;;11.40;5.07;;;10.40;99.90;;;;;;6153605;23;20406;-65
2024/03/12 00:18:40;;;;;;;6.67;5.00;;;10.40;99.90;;;;;;6153885;23;20441;-63
2024/03/12 00:21:07;;;;;;;6.73;4.90;;;10.30;99.90;;;;;;6154130;23;20730;-64
2024/03/12 00:23:34;;;;;;;5.60;4.70;;;10.30;99.90;;;;;;6153120;23;20433;-64
2024/03/12 00:26:02;;;;;;;6.30;4.33;;;10.30;99.90;;;;;;6153887;23;20451;-66
2024/03/12 00:28:31;;;;;;;9.93;5.20;;;10.30;99.90;;;;;;6153368;23;20410;-64
2024/03/12 00:30:59;;;;;;;6.93;4.90;;;10.20;99.90;;;;;;6153632;23;20409;-65
2024/03/12 00:33:26;;;;;;;8.10;5.73;;;10.20;99.90;;;;;;6153264;23;20449;-65
2024/03/12 00:35:53;;;;;;;7.43;5.60;;;10.20;99.90;;;;;;6153889;23;20413;-64
2024/03/12 00:38:20;;;;;;;7.20;4.70;;;10.10;99.90;;;;;;6154052;23;20402;-64
2024/03/12 00:40:48;;;;;;;7.90;4.47;;;10.10;99.90;;;;;;6153730;23;20405;-64
2024/03/12 00:43:14;;;;;;;14.63;6.10;;;10.10;99.90;;;;;;6153605;23;20960;-65
2024/03/12 00:45:44;;;;;;;6.87;6.07;;;10.10;99.90;;;;;;6154023;23;20452;-64
2024/03/12 00:48:14;;;;;;;7.70;6.87;;;10.10;99.90;;;;;;6153770;23;20402;-65
2024/03/12 00:50:42;;;;;;;8.83;5.40;;;10.00;99.90;;;;;;6153634;23;21149;-64
2024/03/12 00:53:11;;;;;;;6.67;5.17;;;10.00;99.90;;;;;;6154573;23;20516;-64
2024/03/12 00:55:40;;;;;;;7.40;4.60;;;10.00;99.90;;;;;;6155654;23;20478;-64
2024/03/12 00:58:10;;;;;;;6.93;5.50;;;9.90;99.90;;;;;;6155461;23;20406;-64
2024/03/12 01:00:39;;;;;;;9.07;5.57;;;9.80;99.90;;;;;;6155581;23;20739;-64
2024/03/12 01:03:08;;;;;;;7.33;5.60;;;9.80;99.90;;;;;;6155005;23;20444;-64
2024/03/12 01:05:37;;;;;;;10.20;5.70;;;9.80;99.90;;;;;;6155753;23;20469;-65
2024/03/12 01:08:05;;;;;;;12.23;6.07;;;9.70;99.90;;;;;;6155576;23;20713;-64
2024/03/12 01:10:34;;;;;;;8.30;5.80;;;9.70;99.90;;;;;;6155133;23;20477;-64
2024/03/12 01:13:05;;;;;;;8.60;5.27;;;9.60;99.90;;;;;;6155011;23;20450;-65
2024/03/12 01:15:32;;;;;;;8.47;5.73;;;9.60;99.90;;;;;;6155774;23;20393;-65
2024/03/12 01:17:59;;;;;;;7.70;6.40;;;9.50;99.90;;;;;;6155373;23;20449;-64
2024/03/12 01:20:26;;;;;;;9.60;6.27;;;9.40;99.90;;;;;;6155484;23;20489;-64
2024/03/12 01:22:55;;;;;;;9.20;6.20;;;9.40;99.90;;;;;;6154898;23;20434;-65
2024/03/12 01:25:22;;;;;;;9.67;5.00;;;9.30;99.90;;;;;;6155301;23;20414;-65
2024/03/12 01:27:51;;;;;;;9.10;5.77;;;9.20;99.90;;;;;;6155130;23;20927;-65
2024/03/12 01:30:20;;;;;;;9.40;5.73;;;9.20;99.90;;;;;;6155400;23;20438;-66
2024/03/12 01:32:51;;;;;;;9.50;6.13;;;9.20;99.90;;;;;;6154348;23;20458;-66
2024/03/12 01:35:20;;;;;;;7.93;5.67;;;9.20;99.90;;;;;;6155650;23;20757;-64
2024/03/12 01:37:49;;;;;;;10.63;5.57;;;9.20;99.90;;;;;;6155195;23;20502;-64
2024/03/12 01:40:22;;;;;;;7.67;5.87;;;9.20;99.90;;;;;;6155237;23;20453;-65
2024/03/12 01:42:52;;;;;;;7.70;5.73;;;9.20;99.90;;;;;;6154061;23;20458;-63
2024/03/12 01:45:21;;;;;;;8.07;5.87;;;9.20;99.90;;;;;;6154828;23;20956;-64
2024/03/12 01:47:49;;;;;;;7.50;5.40;;;9.20;99.90;;;;;;6155750;23;20407;-63
2024/03/12 01:50:17;;;;;;;6.57;4.77;;;9.20;99.90;;;;;;6155646;23;20492;-64
2024/03/12 01:52:46;;;;;;;7.97;5.20;;;9.20;99.90;;;;;;6155203;23;20433;-64
2024/03/12 01:55:13;;;;;;;11.67;4.87;;;9.20;99.90;;;;;;6155455;23;20415;-64
2024/03/12 01:57:42;;;;;;;7.80;5.37;;;9.20;99.90;;;;;;6155281;23;20493;-65
2024/03/12 02:00:13;;;;;;;5.93;4.53;;;9.20;99.90;;;;;;6155840;23;20398;-65
2024/03/12 02:02:41;;;;;;;6.87;5.47;;;9.20;99.90;;;;;;6155548;23;20426;-65
2024/03/12 02:05:10;;;;;;;8.17;5.97;;;9.20;99.90;;;;;;6154297;23;20402;-64
2024/03/12 02:07:38;;;;;;;11.60;4.87;;;9.20;99.90;;;;;;6155613;23;20410;-64
2024/03/12 02:10:06;;;;;;;6.97;5.53;;;9.20;99.90;;;;;;6155908;23;20476;-61
2024/03/12 02:12:33;;;;;;;8.00;5.50;;;9.20;99.90;;;;;;6156407;23;20952;-65
2024/03/12 02:15:04;;;;;;;8.30;6.23;;;9.20;99.90;;;;;;6156324;23;20421;-65
2024/03/12 02:17:31;;;;;;;7.43;5.93;;;9.20;99.90;;;;;;6156149;23;20692;-64
2024/03/12 02:20:00;;;;;;;9.30;6.00;;;9.20;99.90;;;;;;6155770;23;20477;-65
2024/03/12 02:22:26;;;;;;;6.70;5.30;;;9.20;99.90;;;;;;6153930;23;20461;-64
2024/03/12 02:24:55;;;;;;;6.90;5.30;;;9.20;99.90;;;;;;6154508;23;20452;-64
2024/03/12 02:27:22;;;;;;;7.30;4.60;;;9.20;99.90;;;;;;6155221;23;20736;-63
2024/03/12 02:29:48;;;;;;;8.97;5.87;;;9.20;99.90;;;;;;6154926;23;20835;-63
2024/03/12 02:32:15;;;;;;;6.23;4.90;;;9.20;99.90;;;;;;6154593;23;20434;-63
2024/03/12 02:34:42;;;;;;;12.17;6.00;;;9.20;99.90;;;;;;6155085;23;20406;-64
2024/03/12 02:37:09;;;;;;;9.77;5.43;;;9.30;99.90;;;;;;6128602;23;20423;-64
2024/03/12 02:39:36;;;;;;;6.20;4.70;;;9.30;99.90;;;;;;6154921;23;20477;-65
2024/03/12 02:42:05;;;;;;;7.30;6.00;;;9.30;99.90;;;;;;6154142;23;20418;-63
2024/03/12 02:44:32;;;;;;;9.53;5.87;;;9.30;99.90;;;;;;6154430;23;20409;-64
2024/03/12 02:46:59;;;;;;;10.57;6.40;;;9.40;99.90;;;;;;6154480;23;20394;-64
2024/03/12 02:49:26;;;;;;;316.57;174.93;;;9.40;99.90;;;;;;6154590;23;20822;-64
2024/03/12 02:51:53;;;;;;;24.00;14.13;;;9.40;99.90;;;;;;6154340;23;20785;-63
2024/03/12 02:54:21;;;;;;;7.30;5.80;;;9.50;99.90;;;;;;6154280;23;20433;-64
2024/03/12 02:56:48;;;;;;;9.63;5.73;;;9.50;99.90;;;;;;6154265;23;20438;-64
2024/03/12 02:59:16;;;;;;;11.07;5.93;;;9.50;99.90;;;;;;6154687;23;20408;-62
2024/03/12 03:01:43;;;;;;;9.73;6.00;;;9.50;99.90;;;;;;6153853;23;20450;-64
2024/03/12 03:04:10;;;;;;;6.70;5.37;;;9.50;99.90;;;;;;6155499;23;20410;-63
2024/03/12 03:06:37;;;;;;;5.67;4.73;;;9.50;99.90;;;;;;6155103;23;20485;-63
2024/03/12 03:09:05;;;;;;;8.73;5.53;;;9.50;99.90;;;;;;6155093;23;20407;-64
2024/03/12 03:11:42;;;;;;;8.60;6.70;;;9.50;99.90;;;;;;6161185;23;20515;-66
2024/03/12 03:14:10;;;;;;;9.17;6.10;;;9.50;99.90;;;;;;6155096;23;20493;-67
2024/03/12 03:16:38;;;;;;;14.57;5.67;;;9.50;99.90;;;;;;6155053;23;20444;-66
2024/03/12 03:19:06;;;;;;;13.80;5.07;;;9.40;99.90;;;;;;6154820;23;20445;-67
2024/03/12 03:21:33;;;;;;;8.03;5.70;;;9.40;99.90;;;;;;6154679;23;20398;-66
2024/03/12 03:24:00;;;;;;;10.10;5.67;;;9.40;99.90;;;;;;6154808;23;20916;-66
2024/03/12 03:26:27;;;;;;;8.13;5.57;;;9.30;99.90;;;;;;6154491;23;20493;-66
2024/03/12 03:28:54;;;;;;;9.10;7.10;;;9.20;99.90;;;;;;6154632;23;20416;-67
2024/03/12 03:31:21;;;;;;;10.80;5.80;;;9.20;99.90;;;;;;6154295;23;21202;-67
2024/03/12 03:33:50;;;;;;;6.60;5.40;;;9.10;99.90;;;;;;6154219;23;20471;-67
2024/03/12 03:36:17;;;;;;;9.37;5.33;;;9.10;99.90;;;;;;6154586;23;20410;-68
2024/03/12 03:38:44;;;;;;;7.17;5.47;;;9.10;99.90;;;;;;6154379;23;20405;-67
2024/03/12 03:41:12;;;;;;;10.80;6.10;;;9.10;99.90;;;;;;6154776;23;20406;-67
2024/03/12 03:43:42;;;;;;;7.70;5.27;;;9.00;99.90;;;;;;6154106;23;20433;-66
2024/03/12 03:46:09;;;;;;;5.43;4.80;;;9.00;99.90;;;;;;6154514;23;20437;-66
2024/03/12 03:48:36;;;;;;;8.33;6.20;;;8.90;99.90;;;;;;6154824;23;20430;-66
2024/03/12 03:51:05;;;;;;;7.97;5.07;;;8.90;99.90;;;;;;6154300;23;20500;-67
2024/03/12 03:53:31;;;;;;;7.70;5.33;;;9.00;99.90;;;;;;6153701;23;20434;-66
2024/03/12 03:55:58;;;;;;;6.63;4.57;;;8.90;99.90;;;;;;6154508;23;20398;-67
2024/03/12 03:58:25;;;;;;;8.37;6.97;;;8.90;99.90;;;;;;6154559;23;20574;-66
2024/03/12 04:00:52;;;;;;;6.50;4.73;;;8.90;99.90;;;;;;6154004;23;20461;-67
2024/03/12 04:03:19;;;;;;;6.27;4.70;;;8.90;99.90;;;;;;6153655;23;20464;-67
2024/03/12 04:05:49;;;;;;;7.80;5.90;;;8.90;99.90;;;;;;6154054;23;20442;-67
2024/03/12 04:08:18;;;;;;;7.90;5.13;;;8.90;99.90;;;;;;6153983;23;20390;-67
2024/03/12 04:10:46;;;;;;;9.70;5.70;;;8.90;99.90;;;;;;6153498;23;20473;-66
2024/03/12 04:13:14;;;;;;;8.23;5.73;;;8.90;99.90;;;;;;6154016;23;20506;-67
2024/03/12 04:15:41;;;;;;;8.30;5.80;;;8.90;99.90;;;;;;6154132;23;20897;-66
2024/03/12 04:18:08;;;;;;;7.00;5.67;;;8.90;99.90;;;;;;6154418;23;20438;-67
2024/03/12 04:20:35;;;;;;;10.57;5.73;;;8.90;99.90;;;;;;6154313;23;20402;-67
2024/03/12 04:23:02;;;;;;;7.83;5.47;;;8.90;99.90;;;;;;6153275;23;20461;-67
2024/03/12 04:25:30;;;;;;;9.70;5.80;;;8.90;99.90;;;;;;6155605;23;20406;-67
2024/03/12 04:27:58;;;;;;;5.00;4.50;;;8.90;99.90;;;;;;6155855;23;20413;-66
2024/03/12 04:30:25;;;;;;;6.50;4.90;;;8.90;99.90;;;;;;6156278;23;20442;-67
2024/03/12 04:32:52;;;;;;;9.93;5.20;;;9.00;99.90;;;;;;6155672;23;20462;-66
2024/03/12 04:35:19;;;;;;;6.53;5.57;;;9.00;99.90;;;;;;6155951;23;20453;-67
2024/03/12 04:37:46;;;;;;;6.00;5.40;;;9.00;99.90;;;;;;6156454;23;20406;-67
2024/03/12 04:40:13;;;;;;;9.77;5.60;;;9.00;99.90;;;;;;6156185;23;20880;-67
2024/03/12 04:42:45;;;;;;;8.07;5.10;;;9.00;99.90;;;;;;6155076;23;20505;-67
2024/03/12 04:45:12;;;;;;;10.03;5.47;;;9.00;99.90;;;;;;6155795;23;20394;-67
2024/03/12 04:47:40;;;;;;;8.07;4.70;;;9.00;99.90;;;;;;6156042;23;20412;-66
2024/03/12 04:50:09;;;;;;;6.40;4.60;;;9.00;99.90;;;;;;6155796;23;21052;-66
2024/03/12 04:52:35;;;;;;;7.50;5.27;;;9.00;99.90;;;;;;6155721;23;20425;-66
2024/03/12 04:55:04;;;;;;;10.53;4.80;;;9.00;99.90;;;;;;6155864;23;20793;-67
2024/03/12 04:57:31;;;;;;;11.63;5.60;;;9.00;99.90;;;;;;6156481;23;20505;-67
2024/03/12 05:00:00;;;;;;;8.83;6.17;;;8.90;99.90;;;;;;6156241;23;20461;-67
2024/03/12 05:02:27;;;;;;;7.80;4.27;;;8.80;99.90;;;;;;6155014;23;20426;-67
2024/03/12 05:04:53;;;;;;;8.60;5.13;;;8.70;99.90;;;;;;6155709;23;20437;-66
2024/03/12 05:07:20;;;;;;;9.43;5.57;;;8.70;99.90;;;;;;6155620;23;20402;-66
2024/03/12 05:09:47;;;;;;;9.63;6.40;;;8.60;99.90;;;;;;6155779;23;20453;-66
2024/03/12 05:12:14;;;;;;;9.07;5.10;;;8.60;99.90;;;;;;6154943;23;20966;-67
2024/03/12 05:14:41;;;;;;;7.47;5.77;;;8.60;99.90;;;;;;6155436;23;20430;-65
2024/03/12 05:17:10;;;;;;;10.23;5.80;;;8.60;99.90;;;;;;6155727;23;20489;-67
2024/03/12 05:19:37;;;;;;;6.50;5.20;;;8.60;99.90;;;;;;6155856;23;20485;-66
2024/03/12 05:22:04;;;;;;;8.03;4.50;;;8.50;99.90;;;;;;6154437;23;20482;-67
2024/03/12 05:24:33;;;;;;;17.80;5.80;;;8.50;99.90;;;;;;6155261;23;20406;-67
2024/03/12 05:27:00;;;;;;;7.07;5.97;;;8.50;99.90;;;;;;6155413;23;20421;-67
2024/03/12 05:29:36;;;;;;;7.90;5.30;;;8.50;99.90;;;;;;6155827;23;20802;-66
2024/03/12 05:32:17;;;;;;;8.83;5.33;;;8.50;99.90;;;;;;6155192;23;20504;-67
2024/03/12 05:34:47;;;;;;;6.90;5.47;;;8.50;99.90;;;;;;6155193;23;20395;-66
2024/03/12 05:37:28;;;;;;;16.00;6.20;;;8.50;99.90;;;;;;6155594;23;20410;-66
2024/03/12 05:40:11;;;;;;;9.47;5.60;;;8.50;99.90;;;;;;6155640;23;20409;-66
2024/03/12 05:48:09;;;;;;;8.10;6.60;;;8.40;99.90;;;;;;6105935;23;20386;-67
2024/03/12 05:50:38;;;;;;;5.60;5.00;;;8.40;99.90;;;;;;6155568;23;20723;-66
2024/03/12 05:53:05;;;;;;;10.57;5.87;;;8.40;99.90;;;;;;6154411;23;20884;-66
2024/03/12 05:55:33;;;;;;;12.13;6.57;;;8.40;99.90;;;;;;6154885;23;20923;-67
2024/03/12 05:58:00;;;;;;;12.60;6.47;;;8.30;99.90;;;;;;6155490;23;20433;-66
2024/03/12 06:00:27;;;;;;;9.00;5.97;;;8.30;99.90;;;;;;6155169;23;20740;-67
2024/03/12 06:02:54;;;;;;;11.00;5.90;;;8.40;99.90;;;;;;6154945;23;20465;-67
2024/03/12 06:05:21;;;;;;;7.07;5.50;;;8.40;99.90;;;;;;6154906;23;20429;-67
2024/03/12 06:07:49;;;;;;;6.57;5.00;;;8.30;99.90;;;;;;6155468;23;20710;-67
2024/03/12 06:10:17;;;;;;;6.47;4.97;;;8.30;99.90;;;;;;6154995;23;20417;-67
2024/03/12 06:12:44;;;;;;;9.40;6.03;;;8.40;99.90;;;;;;6154276;23;20484;-67
2024/03/12 06:15:11;;;;;;;8.07;5.10;;;8.40;99.90;;;;;;6155369;23;20406;-67
2024/03/12 06:17:38;;;;;;;7.20;4.50;;;8.40;99.90;;;;;;6155092;23;20402;-67
2024/03/12 06:20:06;;;;;;;10.10;4.70;;;8.40;99.90;;;;;;6154947;23;20521;-67
2024/03/12 06:22:33;;;;;;;7.73;5.40;;;8.50;99.90;;;;;;6154202;23;20485;-66
2024/03/12 06:25:01;;;;;;;7.67;5.73;;;8.50;99.90;;;;;;6154968;23;20406;-67
2024/03/12 06:27:29;;;;;;;7.80;4.83;;;8.50;99.90;;;;;;6155127;23;20453;-68
2024/03/12 06:29:56;;;;;;;7.67;5.17;;;8.50;99.90;;;;;;6154653;23;20402;-66
2024/03/12 06:32:25;;;;;;;18.13;6.70;;;8.50;99.90;;;;;;6153986;23;20449;-67
2024/03/12 06:34:52;;;;;;;8.13;5.53;;;8.60;99.90;;;;;;6155171;23;20430;-66
2024/03/12 06:37:19;;;;;;;9.53;5.60;;;8.60;99.90;;;;;;6153993;23;20403;-66
2024/03/12 06:39:46;;;;;;;8.57;4.80;;;8.60;99.90;;;;;;6155237;23;20440;-66
2024/03/12 06:42:19;;;;;;;10.27;5.97;;;8.70;99.90;;;;;;6154377;23;20426;-66
2024/03/12 06:44:49;;;;;;;8.83;5.40;;;8.70;99.90;;;;;;6154881;23;20386;-66
2024/03/12 06:47:17;;;;;;;7.40;5.30;;;8.80;99.90;;;;;;6155089;23;20398;-66
2024/03/12 06:49:44;;;;;;;8.60;6.00;;;8.80;99.90;;;;;;6154380;23;20418;-67
2024/03/12 06:52:11;;;;;;;7.90;5.80;;;8.80;99.90;;;;;;6153957;23;21026;-67
2024/03/12 06:54:38;;;;;;;8.43;4.93;;;8.90;99.90;;;;;;6154328;23;20395;-67
2024/03/12 06:57:06;;;;;;;8.17;5.40;;;8.90;99.90;;;;;;6153720;23;20456;-55
2024/03/12 06:59:35;;;;;;;8.13;6.30;;;8.90;99.90;;;;;;6152800;23;20410;-57
2024/03/12 07:02:02;;;;;;;9.13;5.80;;;9.00;99.90;;;;;;6153176;23;20488;-55
2024/03/12 07:07:21;;;;;;;8.43;5.63;;;9.10;99.90;;;;;;6182424;23;20409;-54
2024/03/12 07:09:49;;;;;;;13.10;6.40;;;9.10;99.90;;;;;;6184866;23;20749;-55
2024/03/12 07:12:16;;;;;;;7.37;5.40;;;9.10;99.90;;;;;;6171844;23;20501;-58
2024/03/12 07:14:45;;;;;;;13.13;5.30;;;9.10;99.90;;;;;;6151961;23;20869;-51
2024/03/12 07:17:14;;;;;;;14.43;5.87;;;9.10;99.90;;;;;;6153736;23;20407;-59
2024/03/12 07:19:42;;;;;;;7.70;5.97;;;9.20;99.90;;;;;;6154582;23;20493;-53
2024/03/12 07:22:10;;;;;;;8.50;6.03;;;9.30;99.90;;;;;;6153890;23;20824;-55
2024/03/12 07:24:37;;;;;;;8.57;5.33;;;9.30;99.90;;;;;;6154357;23;20770;-53
2024/03/12 07:27:04;;;;;;;10.50;5.40;;;9.50;99.90;;;;;;6154876;23;20493;-51
2024/03/12 07:29:32;;;;;;;9.23;4.83;;;9.60;99.90;;;;;;6154663;23;20803;-57
2024/03/12 07:32:01;;;;;;;7.17;4.73;;;9.70;99.90;;;;;;6153380;23;20457;-60
2024/03/12 07:34:29;;;;;;;6.23;5.00;;;9.70;99.90;;;;;;6154464;23;20452;-58
2024/03/12 07:36:56;;;;;;;12.10;6.30;;;9.80;99.90;;;;;;6152819;23;20414;-57
2024/03/12 07:39:31;;;;;;;16.67;7.43;;;9.90;99.90;;;;;;6153899;23;20488;-58
2024/03/12 07:41:58;;;;;;;7.00;4.77;;;10.00;99.90;;;;;;6154125;23;20417;-52
2024/03/12 07:44:26;;;;;;;10.57;5.97;;;10.10;99.90;;;;;;6150507;23;20410;-55
2024/03/12 07:46:55;;;;;;;7.10;5.70;;;10.20;99.90;;;;;;6154526;23;20406;-61
2024/03/12 07:49:23;;;;;;;12.07;7.00;;;10.20;99.90;;;;;;6154966;23;20483;-56
2024/03/12 07:51:51;;;;;;;16.37;6.00;;;10.40;99.90;;;;;;6153928;23;20445;-56
2024/03/12 07:54:18;;;;;;;10.80;6.13;;;10.50;99.90;;;;;;6154193;23;20398;-55
2024/03/12 07:56:48;;;;;;;7.70;5.50;;;10.60;99.90;;;;;;6153798;23;20493;-53
2024/03/12 07:59:16;;;;;;;7.53;6.70;;;10.60;99.90;;;;;;6154006;23;20398;-59
2024/03/12 08:01:44;;;;;;;10.10;6.13;;;10.70;99.90;;;;;;6153567;23;20423;-58
2024/03/12 08:04:12;;;;;;;7.87;6.07;;;10.80;99.90;;;;;;6153790;23;20405;-59
2024/03/12 08:06:41;;;;;;;8.83;6.20;;;10.90;99.90;;;;;;6154510;23;20893;-54
2024/03/12 08:09:08;;;;;;;10.03;6.40;;;11.00;99.90;;;;;;6154001;23;20980;-53
2024/03/12 08:11:36;;;;;;;6.70;5.77;;;11.20;99.90;;;;;;6154401;23;20521;-51
2024/03/12 08:14:03;;;;;;;9.60;6.40;;;11.20;99.90;;;;;;6154442;23;20410;-55
2024/03/12 08:16:30;;;;;;;9.10;5.60;;;11.30;99.90;;;;;;6154649;23;20812;-53
2024/03/12 08:18:58;;;;;;;12.80;5.20;;;11.50;99.90;;;;;;6153915;23;20775;-56
2024/03/12 08:21:27;;;;;;;9.77;6.90;;;11.60;99.90;;;;;;6154006;23;20406;-55
2024/03/12 08:23:58;;;;;;;10.07;6.30;;;11.80;99.90;;;;;;6154056;23;20406;-58
2024/03/12 08:26:26;;;;;;;10.63;5.80;;;11.90;99.90;;;;;;6154007;23;20944;-56
2024/03/12 08:28:53;;;;;;;8.87;5.57;;;12.00;99.90;;;;;;6154369;23;20402;-57
2024/03/12 08:31:20;;;;;;;18.50;7.13;;;12.20;99.90;;;;;;6153745;23;20441;-55
2024/03/12 08:33:47;;;;;;;12.03;6.03;;;12.30;99.90;;;;;;6153430;23;20402;-55
2024/03/12 08:36:14;;;;;;;12.23;6.60;;;12.50;99.90;;;;;;6154350;23;20409;-57
2024/03/12 08:38:41;;;;;;;10.13;6.80;;;12.60;99.90;;;;;;6154481;23;20498;-63
2024/03/12 08:41:10;;;;;;;7.60;6.63;;;12.80;99.90;;;;;;6153911;23;20477;-61
2024/03/12 08:43:37;;;;;;;9.90;6.70;;;12.90;99.90;;;;;;6153556;23;20422;-64
2024/03/12 08:46:06;;;;;;;12.57;6.00;;;13.00;99.90;;;;;;6153624;23;20413;-62
2024/03/12 08:48:33;;;;;;;10.70;7.33;;;13.20;99.90;;;;;;6153434;23;20406;-65
2024/03/12 08:51:01;;;;;;;8.30;5.97;;;13.50;99.90;;;;;;6153846;23;20406;-63
2024/03/12 08:53:28;;;;;;;8.23;5.00;;;13.80;99.90;;;;;;6153703;23;20452;-62
2024/03/12 08:55:56;;;;;;;5.57;4.97;;;14.10;99.90;;;;;;6153823;23;20410;-61
2024/03/12 08:58:25;;;;;;;9.30;5.03;;;14.50;99.90;;;;;;6154465;23;20406;-60
2024/03/12 09:00:52;;;;;;;8.50;4.57;;;14.90;99.90;;;;;;6154963;23;20410;-61
2024/03/12 09:03:19;;;;;;;6.97;4.43;;;15.40;99.90;;;;;;6151700;23;20457;-61
2024/03/12 09:05:46;;;;;;;7.20;4.23;;;15.80;99.90;;;;;;6153901;23;20410;-63
2024/03/12 09:08:13;;;;;;;7.67;4.87;;;16.40;99.90;;;;;;6153510;23;20433;-62
2024/03/12 09:10:42;;;;;;;7.93;5.37;;;17.00;99.90;;;;;;6153689;23;20413;-60
2024/03/12 09:13:11;;;;;;;5.60;4.43;;;17.60;99.90;;;;;;6154046;23;20445;-63
2024/03/12 09:15:41;;;;;;;8.60;4.67;;;18.10;99.90;;;;;;6155901;23;20412;-62
2024/03/12 09:18:08;;;;;;;6.00;4.10;;;18.00;99.90;;;;;;6155936;23;20406;-62
2024/03/12 09:20:36;;;;;;;6.47;3.87;;;17.70;99.90;;;;;;6155562;23;20410;-62
2024/03/12 09:23:03;;;;;;;9.10;4.60;;;17.40;99.90;;;;;;6155897;23;20429;-65
2024/03/12 09:25:31;;;;;;;5.90;4.43;;;17.50;99.90;;;;;;6155914;23;20429;-61
2024/03/12 09:27:57;;;;;;;6.10;4.20;;;17.80;99.90;;;;;;6155113;23;20403;-62
2024/03/12 09:30:24;;;;;;;6.27;3.87;;;18.00;99.90;;;;;;6156170;23;20472;-61
2024/03/12 09:32:53;;;;;;;6.47;4.20;;;18.10;99.60;;;;;;6155798;23;20446;-61
2024/03/12 09:35:19;;;;;;;13.03;4.10;;;17.90;99.30;;;;;;6155102;23;20427;-61
2024/03/12 09:37:46;;;;;;;5.60;4.37;;;17.60;99.50;;;;;;6155555;23;20473;-62
2024/03/12 09:40:14;;;;;;;5.67;3.83;;;17.30;99.90;;;;;;6155892;23;20477;-62
2024/03/12 09:42:45;;;;;;;7.30;4.37;;;17.00;99.90;;;;;;6155581;23;21063;-62
2024/03/12 09:45:12;;;;;;;5.50;3.57;;;16.80;99.90;;;;;;6155137;23;20718;-63
2024/03/12 09:47:40;;;;;;;5.73;3.53;;;16.60;99.90;;;;;;6155320;23;20402;-63
2024/03/12 09:50:11;;;;;;;3.63;3.27;;;16.50;99.90;;;;;;6155670;23;20501;-64
2024/03/12 09:52:39;;;;;;;5.67;2.97;;;16.70;99.90;;;;;;6155405;23;20888;-64
2024/03/12 09:55:10;;;;;;;7.03;3.97;;;16.90;99.90;;;;;;6155288;23;20756;-62
2024/03/12 09:57:37;;;;;;;4.23;3.20;;;17.30;99.90;;;;;;6155463;23;20418;-61
2024/03/12 10:00:06;;;;;;;4.47;3.50;;;17.60;99.80;;;;;;6155414;23;20406;-63
2024/03/12 10:02:34;;;;;;;7.40;3.77;;;17.80;99.00;;;;;;6155536;23;20428;-63
2024/03/12 10:05:01;;;;;;;5.13;2.90;;;18.10;98.60;;;;;;6155318;23;20402;-61
2024/03/12 10:07:32;;;;;;;14.00;3.33;;;18.50;97.20;;;;;;6154683;23;20485;-61
2024/03/12 10:09:59;;;;;;;3.47;2.87;;;18.90;97.00;;;;;;6153668;23;20434;-65
2024/03/12 10:12:27;;;;;;;6.70;2.90;;;19.50;95.60;;;;;;6153080;23;20457;-63
2024/03/12 10:14:56;;;;;;;8.50;2.87;;;19.90;93.90;;;;;;6153428;23;20407;-64
2024/03/12 10:17:24;;;;;;;6.50;3.30;;;20.60;92.20;;;;;;6153615;23;20438;-62
2024/03/12 10:20:07;;;;;;;5.03;3.97;;;21.20;91.50;;;;;;6153406;23;20413;-63
2024/03/12 10:22:36;;;;;;;3.83;3.07;;;21.80;85.90;;;;;;6153357;23;20418;-62
2024/03/12 10:25:10;;;;;;;8.33;3.40;;;22.00;82.40;;;;;;6152994;23;20455;-63
2024/03/12 10:27:53;;;;;;;4.63;2.87;;;22.30;81.70;;;;;;6153985;23;20386;-62
2024/03/12 10:30:25;;;;;;;3.47;3.00;;;22.70;77.90;;;;;;6153621;23;20390;-63
2024/03/12 10:32:52;;;;;;;3.20;2.90;;;22.60;75.60;;;;;;6153143;23;20532;-64
2024/03/12 10:35:20;;;;;;;3.40;2.67;;;22.20;73.90;;;;;;6152901;23;20434;-63
2024/03/12 10:37:50;;;;;;;3.40;2.97;;;22.20;74.00;;;;;;6153066;23;20402;-63
2024/03/12 10:40:19;;;;;;;3.30;2.47;;;22.20;73.50;;;;;;6153765;23;20387;-62
2024/03/12 10:42:53;;;;;;;2.63;2.43;;;22.30;73.10;;;;;;6153794;23;20497;-63
2024/03/12 10:45:21;;;;;;;7.63;2.97;;;22.50;71.70;;;;;;6152982;23;20417;-63
2024/03/12 10:47:49;;;;;;;4.00;2.97;;;22.50;71.50;;;;;;6153024;23;20414;-62
2024/03/12 10:50:17;;;;;;;4.90;3.07;;;22.60;69.70;;;;;;6152550;23;20410;-62
2024/03/12 10:52:45;;;;;;;3.40;2.70;;;22.50;69.40;;;;;;6152704;23;20842;-64
2024/03/12 10:55:20;;;;;;;5.33;3.03;;;21.90;70.00;;;;;;6153489;23;20406;-62
2024/03/12 10:57:49;;;;;;;3.70;3.27;;;21.00;72.20;;;;;;6153432;23;20390;-63
2024/03/12 11:00:20;;;;;;;4.13;3.60;;;20.30;73.00;;;;;;6152802;23;20743;-61
2024/03/12 11:02:49;;;;;;;5.37;3.23;;;19.70;75.20;;;;;;6152827;23;20451;-62
2024/03/12 11:05:19;;;;;;;7.57;3.57;;;19.80;75.50;;;;;;6142078;23;243163;-63
2024/03/12 11:07:47;;;;;;;4.47;3.17;;;19.40;74.80;;;;;;6153335;23;20599;-65
2024/03/12 11:10:16;;;;;;;4.30;3.33;;;18.80;77.00;;;;;;6154375;23;20403;-64
2024/03/12 11:12:43;;;;;;;5.67;4.07;;;18.50;80.20;;;;;;6154248;23;20442;-64
2024/03/12 11:15:11;;;;;;;8.63;4.00;;;18.70;79.90;;;;;;6154272;23;20981;-61
2024/03/12 11:17:38;;;;;;;3.30;3.00;;;18.70;79.10;;;;;;6154235;23;20407;-64
2024/03/12 11:20:07;;;;;;;4.93;3.30;;;18.60;79.70;;;;;;6154818;23;20770;-64
2024/03/12 11:22:35;;;;;;;5.63;3.20;;;18.60;80.30;;;;;;6153885;23;20766;-65
2024/03/12 11:25:04;;;;;;;5.60;2.90;;;18.70;81.00;;;;;;6154143;23;20474;-64
2024/03/12 11:27:34;;;;;;;4.10;3.03;;;18.80;81.00;;;;;;6154484;23;20913;-60
2024/03/12 11:30:08;;;;;;;6.90;2.90;;;18.60;79.80;;;;;;6153965;23;20433;-61
2024/03/12 11:32:36;;;;;;;5.73;3.07;;;18.60;81.10;;;;;;6153648;23;20448;-62
2024/03/12 11:35:08;;;;;;;4.90;2.90;;;18.70;81.30;;;;;;6152923;23;20402;-63
2024/03/12 11:37:35;;;;;;;4.30;2.90;;;18.50;80.60;;;;;;6154033;23;20429;-64
2024/03/12 11:40:27;;;;;;;3.67;2.87;;;18.50;81.60;;;;;;6154327;23;20783;-63
2024/03/12 11:42:56;;;;;;;5.60;3.07;;;18.60;81.80;;;;;;6153752;23;20425;-62
2024/03/12 11:45:39;;;;;;;6.53;3.80;;;18.60;81.80;;;;;;6153001;23;20414;-62
2024/03/12 11:48:07;;;;;;;5.10;3.43;;;18.50;80.70;;;;;;6149612;23;20437;-61
2024/03/12 11:50:36;;;;;;;3.63;2.90;;;18.10;80.70;;;;;;6153874;23;20442;-64
2024/03/12 11:53:18;;;;;;;3.60;3.10;;;18.00;81.80;;;;;;6153501;23;20446;-60
2024/03/12 11:55:57;;;;;;;4.50;2.87;;;17.80;82.60;;;;;;6153824;23;20509;-62
2024/03/12 11:58:31;;;;;;;6.33;3.40;;;17.80;84.40;;;;;;6154020;23;20413;-63
2024/03/12 12:00:59;;;;;;;6.37;3.27;;;17.90;84.00;;;;;;6154239;23;20393;-63
2024/03/12 12:03:26;;;;;;;4.73;3.23;;;18.00;82.60;;;;;;6152836;23;20756;-61
2024/03/12 12:05:54;;;;;;;4.50;3.20;;;18.00;83.60;;;;;;6153686;23;20464;-62
2024/03/12 12:08:21;;;;;;;3.30;3.00;;;18.10;81.60;;;;;;6154179;23;20412;-63
2024/03/12 12:11:02;;;;;;;4.60;2.73;;;18.00;79.40;;;;;;6154047;23;20442;-64
2024/03/12 12:13:30;;;;;;;7.23;4.47;;;17.80;79.40;;;;;;6154253;23;20469;-62
2024/03/12 12:15:59;;;;;;;3.63;3.33;;;17.40;79.20;;;;;;6154345;23;20403;-59
2024/03/12 12:18:25;;;;;;;6.20;3.20;;;17.20;80.40;;;;;;6154003;23;20837;-63
2024/03/12 12:20:58;;;;;;;6.23;3.00;;;17.20;81.30;;;;;;6154390;23;20405;-61
2024/03/12 12:23:26;;;;;;;5.50;3.20;;;17.20;82.00;;;;;;6154369;23;20418;-61
2024/03/12 12:25:57;;;;;;;3.27;2.90;;;17.30;80.80;;;;;;6154261;23;20402;-62
2024/03/12 12:28:25;;;;;;;6.03;3.03;;;17.20;81.00;;;;;;6154264;23;20771;-62
2024/03/12 12:30:59;;;;;;;4.20;3.17;;;17.30;82.00;;;;;;6155139;23;20450;-63
2024/03/12 12:33:28;;;;;;;6.13;2.90;;;17.40;81.90;;;;;;6154265;23;20446;-60
2024/03/12 12:35:56;;;;;;;4.43;3.13;;;17.40;80.00;;;;;;6155520;23;20485;-61
2024/03/12 12:38:25;;;;;;;8.90;3.23;;;17.40;79.70;;;;;;6154748;23;20428;-63
2024/03/12 12:40:53;;;;;;;6.43;3.83;;;17.40;79.70;;;;;;6155282;23;20406;-60
2024/03/12 12:43:21;;;;;;;5.60;3.40;;;17.30;79.90;;;;;;6153754;23;20944;-60
2024/03/12 12:45:49;;;;;;;5.03;3.00;;;17.10;80.40;;;;;;6154143;23;20919;-62
2024/03/12 12:48:18;;;;;;;4.43;3.47;;;17.00;81.40;;;;;;6154338;23;20406;-63
2024/03/12 12:50:53;;;;;;;6.40;4.13;;;16.90;81.60;;;;;;6155505;23;20410;-64
2024/03/12 12:53:21;;;;;;;4.17;3.70;;;16.70;82.20;;;;;;6155936;23;20464;-64
2024/03/12 12:55:55;;;;;;;4.70;3.37;;;16.60;82.60;;;;;;6156144;23;20398;-62
2024/03/12 12:58:25;;;;;;;4.33;3.20;;;16.70;83.10;;;;;;6156267;23;20395;-61
2024/03/12 13:01:01;;;;;;;3.50;2.87;;;16.60;82.70;;;;;;6156265;23;20627;-63
2024/03/12 13:03:37;;;;;;;6.27;3.60;;;16.70;82.10;;;;;;6155745;23;20417;-61
2024/03/12 13:06:15;;;;;;;3.90;3.50;;;16.90;82.00;;;;;;6155733;23;20413;-59